createdAt,value
2022-11-05T00:00:19.177Z,81.13
2022-11-05T00:03:06.204Z,76.15
2022-11-05T00:05:51.761Z,72.72
2022-11-05T00:08:45.505Z,76.50
2022-11-05T00:11:18.100Z,79.28
2022-11-05T00:14:04.057Z,74.97
2022-11-05T00:16:47.065Z,76.75
2022-11-05T00:19:16.868Z,80.47
2022-11-05T00:22:02.634Z,79.22
2022-11-05T00:24:47.840Z,84.53
2022-11-05T00:27:15.929Z,69.00
2022-11-05T00:29:44.000Z,71.65
2022-11-05T00:32:12.077Z,78.45
2022-11-05T00:34:41.564Z,67.72
2022-11-05T00:37:09.566Z,73.47
2022-11-05T00:39:37.551Z,76.18
2022-11-05T00:42:23.335Z,72.35
2022-11-05T00:45:03.416Z,75.70
2022-11-05T00:47:49.637Z,72.57
2022-11-05T00:50:19.685Z,77.30
2022-11-05T00:52:56.935Z,77.90
2022-11-05T00:55:26.505Z,81.60
2022-11-05T00:57:54.481Z,77.82
2022-11-05T01:00:24.465Z,83.90
2022-11-05T01:02:52.613Z,78.88
2022-11-05T01:05:22.198Z,76.13
2022-11-05T01:07:50.189Z,79.40
2022-11-05T01:10:18.173Z,71.32
2022-11-05T01:12:46.151Z,73.53
2022-11-05T01:15:14.509Z,81.03
2022-11-05T01:17:42.576Z,78.43
2022-11-05T01:20:11.977Z,76.38
2022-11-05T01:22:41.367Z,77.70
2022-11-05T01:25:10.379Z,76.55
2022-11-05T01:27:38.734Z,74.43
2022-11-05T01:30:09.147Z,77.63
2022-11-05T01:32:38.225Z,74.28
2022-11-05T01:35:07.787Z,70.35
2022-11-05T01:37:36.441Z,75.15
2022-11-05T01:40:06.779Z,70.38
2022-11-05T01:42:35.200Z,69.53
2022-11-05T01:45:06.607Z,74.65
2022-11-05T01:47:44.383Z,79.95
2022-11-05T01:50:42.659Z,77.47
2022-11-05T01:53:21.522Z,76.25
2022-11-05T01:55:55.392Z,71.70
2022-11-05T01:58:26.371Z,75.47
2022-11-05T02:00:55.998Z,79.40
2022-11-05T02:03:25.285Z,72.28
2022-11-05T02:05:57.290Z,75.68
2022-11-05T02:08:37.781Z,67.85
2022-11-05T02:11:07.216Z,75.30
2022-11-05T02:13:36.569Z,70.63
2022-11-05T02:16:13.794Z,70.63
2022-11-05T02:18:53.340Z,79.13
2022-11-05T02:21:58.431Z,72.45
2022-11-05T02:24:53.776Z,73.97
2022-11-05T02:27:39.092Z,67.40
2022-11-05T02:32:56.298Z,76.20
2022-11-05T02:35:42.966Z,70.97
2022-11-05T02:38:16.318Z,73.07
2022-11-05T02:40:55.021Z,61.22
2022-11-05T02:43:32.178Z,76.85
2022-11-05T02:46:16.221Z,68.30
2022-11-05T02:48:51.701Z,71.63
2022-11-05T02:51:28.442Z,73.22
2022-11-05T02:54:03.533Z,79.80
2022-11-05T02:56:35.079Z,75.28
2022-11-05T02:59:03.110Z,71.75
2022-11-05T03:01:31.320Z,82.45
2022-11-05T03:04:02.367Z,83.88
2022-11-05T03:06:53.055Z,78.55
2022-11-05T03:10:08.264Z,81.90
2022-11-05T03:12:46.186Z,70.88
2022-11-05T03:15:24.287Z,77.47
2022-11-05T03:18:02.191Z,79.05
2022-11-05T03:20:38.407Z,82.60
2022-11-05T03:23:14.824Z,75.07
2022-11-05T03:25:47.285Z,73.00
2022-11-05T03:28:16.565Z,81.95
2022-11-05T03:30:46.255Z,77.13
2022-11-05T03:33:19.654Z,82.35
2022-11-05T03:35:53.388Z,76.85
2022-11-05T03:38:25.732Z,86.88
2022-11-05T03:40:57.423Z,79.05
2022-11-05T03:43:34.271Z,68.15
2022-11-05T03:46:06.232Z,84.25
2022-11-05T03:48:40.139Z,74.65
2022-11-05T03:51:17.606Z,78.07
2022-11-05T03:53:51.226Z,71.63
2022-11-05T03:56:24.305Z,79.97
2022-11-05T03:58:58.482Z,76.65
2022-11-05T04:01:27.730Z,69.60
2022-11-05T04:03:55.869Z,77.72
2022-11-05T04:06:42.572Z,76.53
2022-11-05T04:09:28.499Z,75.20
2022-11-05T04:12:14.008Z,73.18
2022-11-05T04:14:42.170Z,78.65
2022-11-05T04:17:09.985Z,71.60
2022-11-05T04:19:56.675Z,70.32
2022-11-05T04:22:44.779Z,80.80
2022-11-05T04:25:14.044Z,79.50
2022-11-05T04:27:42.101Z,72.93
2022-11-05T04:30:18.961Z,65.75
2022-11-05T04:32:58.612Z,74.00
2022-11-05T04:35:27.553Z,78.18
2022-11-05T04:37:57.101Z,67.50
2022-11-05T04:40:25.635Z,67.43
2022-11-05T04:42:55.598Z,81.35
2022-11-05T04:45:24.571Z,78.68
2022-11-05T04:47:52.627Z,76.00
2022-11-05T04:50:20.911Z,68.00
2022-11-05T04:52:48.965Z,67.15
2022-11-05T04:55:18.561Z,71.00
2022-11-05T04:57:49.541Z,63.13
2022-11-05T05:00:19.035Z,75.20
2022-11-05T05:02:47.762Z,72.50
2022-11-05T05:05:16.393Z,61.97
2022-11-05T05:07:44.641Z,69.80
2022-11-05T05:10:13.112Z,72.20
2022-11-05T05:12:42.511Z,73.15
2022-11-05T05:15:10.530Z,61.83
2022-11-05T05:17:38.634Z,67.78
2022-11-05T05:20:24.514Z,72.85
2022-11-05T05:22:54.143Z,73.38
2022-11-05T05:25:22.952Z,62.50
2022-11-05T05:27:52.693Z,61.92
2022-11-05T05:30:20.723Z,72.38
2022-11-05T05:32:48.760Z,72.07
2022-11-05T05:35:17.100Z,70.85
2022-11-05T05:37:45.675Z,60.08
2022-11-05T05:40:13.734Z,73.25
2022-11-05T05:42:43.306Z,69.22
2022-11-05T05:45:13.538Z,76.15
2022-11-05T05:47:41.605Z,67.05
2022-11-05T05:50:09.836Z,67.85
2022-11-05T05:52:37.893Z,65.95
2022-11-05T05:55:06.866Z,64.05
2022-11-05T05:57:35.526Z,74.32
2022-11-05T06:00:03.645Z,73.20
2022-11-05T06:02:33.329Z,76.53
2022-11-05T06:05:01.516Z,69.03
2022-11-05T06:07:34.453Z,54.03
2022-11-05T06:10:06.641Z,75.70
2022-11-05T06:12:34.824Z,82.13
2022-11-05T06:15:02.791Z,71.90
2022-11-05T06:17:32.170Z,67.60
2022-11-05T06:20:00.224Z,74.70
2022-11-05T06:22:28.242Z,77.70
2022-11-05T06:24:56.286Z,75.63
2022-11-05T06:27:24.331Z,63.72
2022-11-05T06:29:52.359Z,67.35
2022-11-05T06:32:20.455Z,76.80
2022-11-05T06:34:50.044Z,63.13
2022-11-05T06:37:18.212Z,65.20
2022-11-05T06:39:46.161Z,67.47
2022-11-05T06:42:18.786Z,68.85
2022-11-05T06:44:47.691Z,79.05
2022-11-05T06:47:15.779Z,63.72
2022-11-05T06:49:43.832Z,67.68
2022-11-05T06:52:13.676Z,71.25
2022-11-05T06:54:42.467Z,62.03
2022-11-05T06:57:11.176Z,60.22
2022-11-05T06:59:40.093Z,55.38
2022-11-05T07:02:08.895Z,59.95
2022-11-05T07:04:36.893Z,56.50
2022-11-05T07:07:05.011Z,50.03
2022-11-05T07:09:34.426Z,50.83
2022-11-05T07:12:02.561Z,51.80
2022-11-05T07:14:30.570Z,58.97
2022-11-05T07:16:58.989Z,54.75
2022-11-05T07:19:27.154Z,51.67
2022-11-05T07:21:55.153Z,53.58
2022-11-05T07:24:23.120Z,56.88
2022-11-05T07:26:52.535Z,57.22
2022-11-05T07:29:20.607Z,54.88
2022-11-05T07:31:48.728Z,59.53
2022-11-05T07:34:16.898Z,55.17
2022-11-05T07:36:44.855Z,58.28
2022-11-05T07:39:12.814Z,51.58
2022-11-05T07:41:40.872Z,53.55
2022-11-05T07:44:10.307Z,57.72
2022-11-05T07:46:38.430Z,44.47
2022-11-05T07:49:06.781Z,42.10
2022-11-05T07:51:34.870Z,59.88
2022-11-05T07:54:03.148Z,59.63
2022-11-05T07:56:31.137Z,49.17
2022-11-05T07:58:59.180Z,45.70
2022-11-05T08:01:28.742Z,54.15
2022-11-05T08:03:57.002Z,37.83
2022-11-05T08:06:24.978Z,54.15
2022-11-05T08:08:53.046Z,44.58
2022-11-05T08:11:21.197Z,45.38
2022-11-05T08:13:49.228Z,53.95
2022-11-05T08:16:17.359Z,45.67
2022-11-05T08:18:47.050Z,45.05
2022-11-05T08:21:15.109Z,37.97
2022-11-05T08:23:43.106Z,35.00
2022-11-05T08:26:11.857Z,50.88
2022-11-05T08:28:39.897Z,40.38
2022-11-05T08:31:07.950Z,48.75
2022-11-05T08:33:36.075Z,46.25
2022-11-05T08:36:06.383Z,40.20
2022-11-05T08:38:34.541Z,38.78
2022-11-05T08:41:02.707Z,43.55
2022-11-05T08:43:30.758Z,47.30
2022-11-05T08:46:01.253Z,37.33
2022-11-05T08:48:29.407Z,46.03
2022-11-05T08:50:57.418Z,45.83
2022-11-05T08:53:26.757Z,28.55
2022-11-05T08:55:59.157Z,44.25
2022-11-05T08:58:29.780Z,38.03
2022-11-05T09:01:03.371Z,32.92
2022-11-05T09:06:00.455Z,37.03
2022-11-05T09:08:29.949Z,29.42
2022-11-05T09:10:58.037Z,39.20
2022-11-05T09:13:26.685Z,30.30
2022-11-05T09:15:55.210Z,46.72
2022-11-05T09:18:23.289Z,53.40
2022-11-05T09:20:51.254Z,29.20
2022-11-05T09:23:19.518Z,33.55
2022-11-05T09:25:49.547Z,29.00
2022-11-05T09:28:21.575Z,34.30
2022-11-05T09:30:51.601Z,31.80
2022-11-05T09:33:22.617Z,37.92
2022-11-05T09:35:51.745Z,31.98
2022-11-05T09:38:20.253Z,36.38
2022-11-05T09:40:57.004Z,31.50
2022-11-05T09:43:31.916Z,37.38
2022-11-05T09:46:04.520Z,36.25
2022-11-05T09:48:34.534Z,25.98
2022-11-05T09:51:02.706Z,36.65
2022-11-05T09:53:30.736Z,30.02
2022-11-05T09:56:02.111Z,36.30
2022-11-05T09:58:37.442Z,25.83
2022-11-05T10:01:07.967Z,33.72
2022-11-05T10:03:42.612Z,22.98
2022-11-05T10:06:15.594Z,32.13
2022-11-05T10:08:46.413Z,30.45
2022-11-05T10:11:19.641Z,34.13
2022-11-05T10:13:52.636Z,37.42
2022-11-05T10:16:25.449Z,29.33
2022-11-05T10:18:58.283Z,28.98
2022-11-05T10:21:51.358Z,55.17
2022-11-05T10:24:16.776Z,38.50
2022-11-05T10:26:50.483Z,36.05
2022-11-05T10:29:29.488Z,44.15
2022-11-05T10:31:58.628Z,27.85
2022-11-05T10:34:31.821Z,30.33
2022-11-05T10:36:59.896Z,29.02
2022-11-05T10:39:28.808Z,29.42
2022-11-05T10:42:15.437Z,25.20
2022-11-05T10:44:48.541Z,33.40
2022-11-05T10:47:41.408Z,26.27
2022-11-05T10:50:12.957Z,35.40
2022-11-05T10:52:47.142Z,30.70
2022-11-05T10:55:20.322Z,28.15
2022-11-05T10:57:49.980Z,32.85
2022-11-05T11:00:24.220Z,29.80
2022-11-05T11:02:54.552Z,31.83
2022-11-05T11:05:25.954Z,31.10
2022-11-05T11:07:57.661Z,35.30
2022-11-05T11:10:27.198Z,32.80
2022-11-05T11:12:58.179Z,35.63
2022-11-05T11:15:29.381Z,30.50
2022-11-05T11:17:57.668Z,34.88
2022-11-05T11:20:29.230Z,23.98
2022-11-05T11:23:07.011Z,33.13
2022-11-05T11:25:43.672Z,36.22
2022-11-05T11:28:21.350Z,27.73
2022-11-05T11:30:52.359Z,31.65
2022-11-05T11:33:24.405Z,26.98
2022-11-05T11:35:52.523Z,38.28
2022-11-05T11:38:20.575Z,32.75
2022-11-05T11:40:48.647Z,35.08
2022-11-05T11:43:27.468Z,31.27
2022-11-05T11:46:03.802Z,30.85
2022-11-05T11:48:37.442Z,29.80
2022-11-05T11:51:30.444Z,31.38
2022-11-05T11:54:00.001Z,32.25
2022-11-05T11:56:29.073Z,36.70
2022-11-05T11:59:02.310Z,28.33
2022-11-05T12:01:57.597Z,30.55
2022-11-05T12:05:01.315Z,37.60
2022-11-05T12:07:42.531Z,30.65
2022-11-05T12:10:22.992Z,31.77
2022-11-05T12:13:01.756Z,28.00
2022-11-05T12:15:42.970Z,33.42
2022-11-05T12:18:19.705Z,32.08
2022-11-05T12:21:07.452Z,29.55
2022-11-05T12:24:03.112Z,24.35
2022-11-05T12:26:42.696Z,23.95
2022-11-05T12:29:39.000Z,26.58
2022-11-05T12:32:41.207Z,30.52
2022-11-05T12:35:25.496Z,26.70
2022-11-05T12:38:00.936Z,29.70
2022-11-05T12:40:44.178Z,28.90
2022-11-05T12:43:20.963Z,35.53
2022-11-05T12:45:58.969Z,32.65
2022-11-05T12:48:46.314Z,29.25
2022-11-05T12:51:27.816Z,26.90
2022-11-05T12:54:06.952Z,26.70
2022-11-05T12:56:40.512Z,26.17
2022-11-05T12:59:19.604Z,26.65
2022-11-05T13:01:51.785Z,27.25
2022-11-05T13:04:34.733Z,29.05
2022-11-05T13:07:06.879Z,33.65
2022-11-05T13:09:41.076Z,28.15
2022-11-05T13:12:12.287Z,30.58
2022-11-05T13:14:46.079Z,29.75
2022-11-05T13:17:18.709Z,32.20
2022-11-05T13:20:00.824Z,26.75
2022-11-05T13:22:36.995Z,27.55
2022-11-05T13:25:19.958Z,28.33
2022-11-05T13:27:54.787Z,28.42
2022-11-05T13:32:57.444Z,27.67
2022-11-05T13:35:31.779Z,30.05
2022-11-05T13:38:23.032Z,29.42
2022-11-05T13:41:06.341Z,27.27
2022-11-05T13:43:59.752Z,26.63
2022-11-05T13:46:46.288Z,32.10
2022-11-05T13:49:44.611Z,26.70
2022-11-05T13:52:33.834Z,39.28
2022-11-05T13:55:27.110Z,41.20
2022-11-05T13:58:36.632Z,32.47
2022-11-05T14:01:13.907Z,38.83
2022-11-05T14:03:47.937Z,25.23
2022-11-05T14:06:23.457Z,27.27
2022-11-05T14:08:53.490Z,27.75
2022-11-05T14:11:25.146Z,34.75
2022-11-05T14:13:57.905Z,35.88
2022-11-05T14:16:27.968Z,49.17
2022-11-05T14:19:29.981Z,62.40
2022-11-05T14:21:59.123Z,68.18
2022-11-05T14:24:43.430Z,50.17
2022-11-05T14:27:43.621Z,30.60
2022-11-05T14:30:43.570Z,25.08
2022-11-05T14:33:31.677Z,45.10
2022-11-05T14:36:34.306Z,33.15
2022-11-05T14:39:21.784Z,34.35
2022-11-05T14:42:01.862Z,41.53
2022-11-05T14:44:30.480Z,56.45
2022-11-05T14:47:02.113Z,51.45
2022-11-05T14:49:35.179Z,48.92
2022-11-05T14:52:09.178Z,60.17
2022-11-05T14:54:45.131Z,56.17
2022-11-05T14:57:16.475Z,77.68
2022-11-05T15:00:02.289Z,66.05
2022-11-05T15:02:37.066Z,54.67
2022-11-05T15:05:39.313Z,52.08
2022-11-05T15:08:30.959Z,39.55
2022-11-05T15:11:08.721Z,43.65
2022-11-05T15:13:46.283Z,35.20
2022-11-05T15:16:20.954Z,44.72
2022-11-05T15:18:49.335Z,43.47
2022-11-05T15:21:19.572Z,56.45
2022-11-05T15:23:51.925Z,48.58
2022-11-05T15:26:24.739Z,46.53
2022-11-05T15:28:55.824Z,46.80
2022-11-05T15:31:34.480Z,42.47
2022-11-05T15:34:19.571Z,46.22
2022-11-05T15:36:50.003Z,43.97
2022-11-05T15:39:29.768Z,49.90
2022-11-05T15:41:58.910Z,39.35
2022-11-05T15:44:31.161Z,47.85
2022-11-05T15:47:18.226Z,52.90
2022-11-05T15:49:47.818Z,50.47
2022-11-05T15:52:17.919Z,54.58
2022-11-05T15:54:46.470Z,65.63
2022-11-05T15:57:22.294Z,66.10
2022-11-05T15:59:52.012Z,66.68
2022-11-05T16:02:33.254Z,63.42
2022-11-05T16:05:04.393Z,135.10
2022-11-05T16:07:32.400Z,98.00
2022-11-05T16:10:02.320Z,69.05
2022-11-05T16:12:35.626Z,80.05
2022-11-05T16:15:19.781Z,53.88
2022-11-05T16:17:51.919Z,70.00
2022-11-05T16:20:32.230Z,72.22
2022-11-05T16:23:01.633Z,79.00
2022-11-05T16:25:33.738Z,85.68
2022-11-05T16:28:02.636Z,54.97
2022-11-05T16:30:32.114Z,59.10
2022-11-05T16:33:08.726Z,58.53
2022-11-05T16:35:41.792Z,65.75
2022-11-05T16:38:13.252Z,64.00
2022-11-05T16:40:41.552Z,62.90
2022-11-05T16:43:18.244Z,65.70
2022-11-05T16:45:47.891Z,64.07
2022-11-05T16:48:17.295Z,59.10
2022-11-05T16:50:46.213Z,66.78
2022-11-05T16:53:14.776Z,60.78
2022-11-05T16:55:44.924Z,63.60
2022-11-05T16:58:20.786Z,65.60
2022-11-05T17:00:52.261Z,69.97
2022-11-05T17:03:20.476Z,75.80
2022-11-05T17:05:48.833Z,77.35
2022-11-05T17:08:16.990Z,72.70
2022-11-05T17:10:45.163Z,71.07
2022-11-05T17:13:16.413Z,78.72
2022-11-05T17:15:45.723Z,95.47
2022-11-05T17:18:18.997Z,73.85
2022-11-05T17:20:48.877Z,73.90
2022-11-05T17:23:18.576Z,78.20
2022-11-05T17:25:48.654Z,72.88
2022-11-05T17:28:17.504Z,82.10
2022-11-05T17:30:52.010Z,81.10
2022-11-05T17:33:23.809Z,77.15
2022-11-05T17:35:52.527Z,73.13
2022-11-05T17:38:20.875Z,71.25
2022-11-05T17:40:49.010Z,69.85
2022-11-05T17:43:17.130Z,79.65
2022-11-05T17:45:46.535Z,95.93
2022-11-05T17:48:15.314Z,69.47
2022-11-05T17:50:46.937Z,63.70
2022-11-05T17:53:16.401Z,69.32
2022-11-05T17:55:45.807Z,65.70
2022-11-05T17:58:14.868Z,64.75
2022-11-05T18:00:43.603Z,56.30
2022-11-05T18:03:13.019Z,62.03
2022-11-05T18:05:41.403Z,60.88
2022-11-05T18:08:11.441Z,64.47
2022-11-05T18:10:40.441Z,60.17
2022-11-05T18:13:09.017Z,63.78
2022-11-05T18:15:41.033Z,64.90
2022-11-05T18:18:09.588Z,65.20
2022-11-05T18:20:38.216Z,69.82
2022-11-05T18:23:06.248Z,69.03
2022-11-05T18:25:35.653Z,77.88
2022-11-05T18:28:03.945Z,75.30
2022-11-05T18:30:31.953Z,73.07
2022-11-05T18:33:00.006Z,74.47
2022-11-05T18:35:28.076Z,68.13
2022-11-05T18:37:56.157Z,92.43
2022-11-05T18:40:24.121Z,90.18
2022-11-05T18:42:53.446Z,87.07
2022-11-05T18:45:25.499Z,95.50
2022-11-05T18:47:56.532Z,105.45
2022-11-05T18:50:24.650Z,106.07
2022-11-05T18:52:52.714Z,115.13
2022-11-05T18:55:21.008Z,173.70
2022-11-05T18:57:49.281Z,170.77
2022-11-05T19:00:19.089Z,145.18
2022-11-05T19:02:47.192Z,155.07
2022-11-05T19:05:28.498Z,145.95
2022-11-05T19:07:57.365Z,141.57
2022-11-05T19:10:25.725Z,172.77
2022-11-05T19:12:54.106Z,186.07
2022-11-05T19:15:23.535Z,139.45
2022-11-05T19:17:51.884Z,130.52
2022-11-05T19:20:20.023Z,138.10
2022-11-05T19:22:48.022Z,124.35
2022-11-05T19:25:16.024Z,140.50
2022-11-05T19:27:47.021Z,127.38
2022-11-05T19:30:15.244Z,143.90
2022-11-05T19:32:44.693Z,137.88
2022-11-05T19:35:12.808Z,134.43
2022-11-05T19:37:41.005Z,129.30
2022-11-05T19:40:11.296Z,112.00
2022-11-05T19:42:39.380Z,116.95
2022-11-05T19:45:30.864Z,126.93
2022-11-05T19:47:57.997Z,128.85
2022-11-05T19:50:26.349Z,128.75
2022-11-05T19:52:54.466Z,120.57
2022-11-05T19:55:22.547Z,121.90
2022-11-05T19:57:50.648Z,129.02
2022-11-05T20:00:19.150Z,121.13
2022-11-05T20:02:47.976Z,117.28
2022-11-05T20:05:18.386Z,128.00
2022-11-05T20:07:52.274Z,128.77
2022-11-05T20:10:20.979Z,123.50
2022-11-05T20:12:49.049Z,116.45
2022-11-05T20:15:19.126Z,125.65
2022-11-05T20:17:50.295Z,117.63
2022-11-05T20:20:20.247Z,125.65
2022-11-05T20:22:48.411Z,126.78
2022-11-05T20:25:16.678Z,133.98
2022-11-05T20:27:44.755Z,133.55
2022-11-05T20:30:13.110Z,145.57
2022-11-05T20:32:41.179Z,142.27
2022-11-05T20:35:10.192Z,136.70
2022-11-05T20:37:39.575Z,122.55
2022-11-05T20:40:08.652Z,122.72
2022-11-05T20:42:37.567Z,121.32
2022-11-05T20:45:06.257Z,113.07
2022-11-05T20:47:34.427Z,110.53
2022-11-05T20:50:04.165Z,124.32
2022-11-05T20:52:32.204Z,133.43
2022-11-05T20:55:02.336Z,123.00
2022-11-05T20:57:30.518Z,140.93
2022-11-05T20:59:58.560Z,135.15
2022-11-05T21:02:26.771Z,158.15
2022-11-05T21:04:54.937Z,118.18
2022-11-05T21:07:22.912Z,109.82
2022-11-05T21:09:50.918Z,94.90
2022-11-05T21:12:21.630Z,125.38
2022-11-05T21:14:51.058Z,99.35
2022-11-05T21:17:19.272Z,106.93
2022-11-05T21:19:47.371Z,102.55
2022-11-05T21:22:16.071Z,111.53
2022-11-05T21:24:44.437Z,95.63
2022-11-05T21:27:12.472Z,97.45
2022-11-05T21:29:41.950Z,97.68
2022-11-05T21:32:10.274Z,110.35
2022-11-05T21:34:38.416Z,103.10
2022-11-05T21:37:07.000Z,107.53
2022-11-05T21:39:35.098Z,105.28
2022-11-05T21:42:04.005Z,108.82
2022-11-05T21:44:32.031Z,103.25
2022-11-05T21:47:04.500Z,113.68
2022-11-05T21:49:35.063Z,122.22
2022-11-05T21:52:20.798Z,123.18
2022-11-05T21:55:06.410Z,157.13
2022-11-05T21:57:53.051Z,173.00
2022-11-05T22:00:21.187Z,160.07
2022-11-05T22:02:50.839Z,206.82
2022-11-05T22:05:19.150Z,165.00
2022-11-05T22:07:47.209Z,133.38
2022-11-05T22:10:16.576Z,161.93
2022-11-05T22:12:45.278Z,152.25
2022-11-05T22:15:13.573Z,114.45
2022-11-05T22:17:46.572Z,129.70
2022-11-05T22:20:16.787Z,106.68
2022-11-05T22:22:45.125Z,113.78
2022-11-05T22:25:14.428Z,120.43
2022-11-05T22:27:43.922Z,123.45
2022-11-05T22:30:13.815Z,120.75
2022-11-05T22:32:42.044Z,111.80
2022-11-05T22:35:10.822Z,120.78
2022-11-05T22:37:40.244Z,132.23
2022-11-05T22:40:09.781Z,122.97
2022-11-05T22:42:37.824Z,129.50
2022-11-05T22:45:06.817Z,119.88
2022-11-05T22:47:34.915Z,120.35
2022-11-05T22:50:02.978Z,116.35
2022-11-05T22:52:31.056Z,106.88
2022-11-05T22:55:02.670Z,107.38
2022-11-05T22:57:30.666Z,116.00
2022-11-05T22:59:58.660Z,116.25
2022-11-05T23:02:26.816Z,116.57
2022-11-05T23:04:54.921Z,127.80
2022-11-05T23:07:40.013Z,121.00
2022-11-05T23:10:28.060Z,120.05
2022-11-05T23:12:56.252Z,124.22
2022-11-05T23:15:41.865Z,120.57
2022-11-05T23:18:27.663Z,107.45
2022-11-05T23:21:13.220Z,104.75
2022-11-05T23:23:58.649Z,121.38
2022-11-05T23:29:13.417Z,111.90
2022-11-05T23:31:58.806Z,124.13
2022-11-05T23:37:20.599Z,114.03
2022-11-05T23:39:48.657Z,113.32
2022-11-05T23:42:50.658Z,112.85
2022-11-05T23:45:36.525Z,117.80
2022-11-05T23:48:17.900Z,128.48
2022-11-05T23:50:48.936Z,125.85
2022-11-05T23:53:17.072Z,125.68
2022-11-05T23:55:45.322Z,129.10
2022-11-05T23:58:17.718Z,127.93
